METAR Data
IDs: Format: Raw Decoded Include TAF

Data at: 1742 UTC 16 Oct 2021

KGZN 161720Z AUTO VRB05G10KT 10SM CLR 19/M02 A3042 RMK AO2
KGZN 161700Z AUTO 36009KT 10SM CLR 18/M01 A3042 RMK AO2
KGZN 161640Z AUTO VRB04G11KT 10SM CLR 18/M01 A3042 RMK AO2
KGZN 161620Z AUTO 01007KT 10SM CLR 18/M00 A3043 RMK AO2
KGZN 161600Z AUTO 34005KT 10SM CLR 17/03 A3043 RMK AO2
KGZN 161540Z AUTO 35005KT 10SM CLR 16/05 A3042 RMK AO2
KGZN 161520Z AUTO 33004KT 10SM CLR 15/05 A3042 RMK AO2
KGZN 161500Z AUTO 33005KT 10SM CLR 14/06 A3042 RMK AO2
KGZN 161440Z AUTO 33005KT 10SM CLR 13/05 A3041 RMK AO2
KGZN 161420Z AUTO 30005KT 10SM CLR 12/05 A3041 RMK AO2
KGZN 161400Z AUTO 31005KT 10SM CLR 11/06 A3039 RMK AO2
KGZN 161340Z AUTO VRB03KT 10SM CLR 10/05 A3039 RMK AO2
KGZN 161320Z AUTO 31005KT 10SM CLR 08/05 A3037 RMK AO2
KGZN 161300Z AUTO 30005KT 10SM CLR 07/04 A3037 RMK AO2
KGZN 161240Z AUTO 29004KT 10SM CLR 07/04 A3037 RMK AO2
KGZN 161220Z AUTO 29005KT 10SM CLR 07/04 A3036 RMK AO2
KGZN 161200Z AUTO 31005KT 10SM CLR 06/04 A3035 RMK AO2
KGZN 161140Z AUTO 29003KT 10SM CLR 06/04 A3034 RMK AO2
KGZN 161120Z AUTO 34004KT 10SM CLR 08/04 A3034 RMK AO2
KGZN 161100Z AUTO 32004KT 10SM CLR 08/04 A3033 RMK AO2
KGZN 161040Z AUTO 33005KT 10SM CLR 08/04 A3033 RMK AO2
KGZN 161020Z AUTO 33004KT 10SM CLR 09/04 A3033 RMK AO2
KGZN 161000Z AUTO 35006KT 10SM CLR 10/04 A3033 RMK AO2
KGZN 160940Z AUTO 36005KT 10SM CLR 09/04 A3033 RMK AO2
KGZN 160920Z AUTO 00000KT 10SM CLR 10/04 A3033 RMK AO2
KGZN 160900Z AUTO 00000KT 10SM CLR 09/05 A3033 RMK AO2
KGZN 160840Z AUTO 35004KT 10SM CLR 10/05 A3033 RMK AO2
KGZN 160820Z AUTO 36006KT 10SM CLR 10/05 A3033 RMK AO2
KGZN 160800Z AUTO 36005KT 10SM CLR 10/05 A3033 RMK AO2
KGZN 160740Z AUTO 35005KT 10SM CLR 10/05 A3033 RMK AO2
KGZN 160720Z AUTO 34004KT 10SM CLR 09/05 A3033 RMK AO2
KGZN 160700Z AUTO 33003KT 10SM CLR 10/06 A3033 RMK AO2
KGZN 160640Z AUTO 31004KT 10SM CLR 10/06 A3032 RMK AO2
KGZN 160620Z AUTO 32004KT 10SM CLR 10/06 A3032 RMK AO2
KGZN 160600Z AUTO 31004KT 10SM CLR 10/06 A3031 RMK AO2
KGZN 160540Z AUTO 32003KT 10SM CLR 11/05 A3031 RMK AO2
KGZN 160520Z AUTO 33003KT 8SM CLR 12/05 A3031 RMK AO2
KGZN 160500Z AUTO 35004KT 7SM CLR 12/05 A3030 RMK AO2
KGZN 160440Z AUTO 35004KT 7SM CLR 12/06 A3030 RMK AO2
KGZN 160420Z AUTO 36004KT 7SM CLR 12/05 A3029 RMK AO2
KGZN 160400Z AUTO 36005KT 9SM CLR 13/05 A3029 RMK AO2
KGZN 160340Z AUTO 01003KT 10SM CLR 13/06 A3028 RMK AO2
KGZN 160320Z AUTO 01005KT 10SM CLR 14/05 A3027 RMK AO2
KGZN 160300Z AUTO 36006KT 10SM CLR 13/06 A3026 RMK AO2
KGZN 160240Z AUTO 01006KT 10SM CLR 14/05 A3026 RMK AO2
KGZN 160220Z AUTO 36005KT 10SM CLR 14/05 A3025 RMK AO2
KGZN 160200Z AUTO 36006KT 10SM CLR 15/05 A3024 RMK AO2
KGZN 160140Z AUTO 01008KT 10SM CLR 16/05 A3023 RMK AO2
KGZN 160120Z AUTO 36008KT 10SM CLR 16/05 A3022 RMK AO2
KGZN 160100Z AUTO 01011KT 10SM CLR 16/05 A3021 RMK AO2
KGZN 160040Z AUTO 01008G13KT 10SM CLR 17/06 A3020 RMK AO2
KGZN 160020Z AUTO 01011G17KT 10SM CLR 17/06 A3019 RMK AO2
KGZN 160000Z AUTO 01009KT 10SM CLR 18/05 A3018 RMK AO2
KGZN 152340Z AUTO 01009KT 10SM CLR 19/05 A3017 RMK AO2
KGZN 152320Z AUTO 36012G20KT 10SM CLR 19/05 A3016 RMK AO2
KGZN 152300Z AUTO 36015KT 10SM CLR 20/05 A3015 RMK AO2
KGZN 152240Z AUTO 01017KT 10SM CLR 20/05 A3015 RMK AO2
KGZN 152220Z AUTO 36013G22KT 10SM CLR 20/05 A3014 RMK AO2
KGZN 152200Z AUTO 01014G20KT 10SM CLR 21/06 A3014 RMK AO2
KGZN 152140Z AUTO 01018G25KT 10SM CLR 21/07 A3013 RMK AO2
KGZN 152120Z AUTO 01015G22KT 10SM CLR 21/07 A3013 RMK AO2
KGZN 152100Z AUTO 36014KT 10SM CLR 22/07 A3013 RMK AO2
KGZN 152040Z AUTO 36012G23KT 10SM CLR 21/07 A3013 RMK AO2
KGZN 152020Z AUTO 35013G23KT 10SM CLR 21/08 A3012 RMK AO2
KGZN 152000Z AUTO 35013G21KT 10SM CLR 21/08 A3012 RMK AO2
KGZN 151940Z AUTO 34012G21KT 10SM CLR 21/08 A3012 RMK AO2
KGZN 151920Z AUTO 34014G25KT 10SM CLR 21/09 A3012 RMK AO2
KGZN 151900Z AUTO 34016KT 10SM CLR 21/09 A3012 RMK AO2
KGZN 151840Z AUTO 35013G23KT 10SM CLR 20/09 A3012 RMK AO2
KGZN 151820Z AUTO 33013G21KT 10SM CLR 20/10 A3012 RMK AO2
KGZN 151800Z AUTO 33016G21KT 10SM CLR 20/10 A3012 RMK AO2
KGZN 151740Z AUTO 34013G22KT 10SM CLR 19/10 A3012 RMK AO2
KGZN 151720Z AUTO 34012G21KT 10SM CLR 18/10 A3012 RMK AO2
KGZN 151700Z AUTO 32015G23KT 10SM FEW023 18/10 A3012 RMK AO2
KGZN 151640Z AUTO 35014G21KT 10SM BKN021 17/10 A3011 RMK AO2
KGZN 151620Z AUTO 32015G22KT 10SM OVC016 16/11 A3011 RMK AO2
KGZN 151600Z AUTO 33016G24KT 10SM OVC013 15/11 A3011 RMK AO2
KGZN 151540Z AUTO 33012G19KT 290V360 10SM BKN008 BKN013 14/11 A3010 RMK AO2
KGZN 151520Z AUTO 33014G19KT 9SM BKN008 13/11 A3009 RMK AO2
KGZN 151500Z AUTO 33013G19KT 7SM OVC007 13/11 A3008 RMK AO2
KGZN 151440Z AUTO 32011G19KT 5SM BR OVC008 12/11 A3007 RMK AO2
KGZN 151420Z AUTO 33013KT 310V010 10SM OVC011 12/10 A3006 RMK AO2
KGZN 151400Z AUTO 32011G18KT 10SM OVC012 13/10 A3005 RMK AO2 LTG DSNT NE
KGZN 151340Z AUTO 33013G18KT 10SM OVC014 13/09 A3002 RMK AO2
KGZN 151320Z AUTO 32009G15KT 10SM OVC015 13/10 A3001 RMK AO2
KGZN 151300Z AUTO 30008KT 10SM SCT015 13/10 A3000 RMK AO2
KGZN 151240Z AUTO 31007KT 10SM CLR 13/10 A2998 RMK AO2
KGZN 151220Z AUTO 31006KT 10SM CLR 14/11 A2996 RMK AO2
KGZN 151200Z AUTO 31007KT 10SM CLR 14/11 A2995 RMK AO2
KGZN 151140Z AUTO 33006KT 10SM SCT070 15/12 A2994 RMK AO2
KGZN 151120Z AUTO 33008KT 10SM FEW008 SCT050 BKN070 16/13 A2992 RMK AO2
KGZN 151100Z AUTO 32007G13KT 10SM FEW009 FEW042 SCT050 19/17 A2990 RMK AO2
KGZN 151040Z AUTO 29005KT 10SM FEW050 19/18 A2988 RMK AO2
KGZN 151020Z AUTO 27006KT 10SM CLR 19/18 A2987 RMK AO2
KGZN 151000Z AUTO 23007KT 10SM CLR 20/18 A2987 RMK AO2
KGZN 150940Z AUTO 23008KT 10SM CLR 20/19 A2986 RMK AO2
KGZN 150920Z AUTO 21008KT 10SM CLR 21/19 A2985 RMK AO2
KGZN 150900Z AUTO 22011KT 10SM CLR 21/19 A2985 RMK AO2
KGZN 150840Z AUTO 21009KT 10SM CLR 21/20 A2985 RMK AO2
KGZN 150820Z AUTO 21009KT 10SM CLR 21/20 A2986 RMK AO2
KGZN 150800Z AUTO 21009G14KT 10SM CLR 21/20 A2986 RMK AO2
KGZN 150740Z AUTO 20008KT 10SM CLR 21/20 A2986 RMK AO2
KGZN 150720Z AUTO 20007KT 10SM CLR 21/20 A2986 RMK AO2
KGZN 150700Z AUTO 20007KT 10SM CLR 21/20 A2986 RMK AO2
KGZN 150640Z AUTO 20008KT 10SM CLR 21/20 A2986 RMK AO2
KGZN 150620Z AUTO 19008G13KT 10SM CLR 21/20 A2985 RMK AO2
KGZN 150600Z AUTO 19009G14KT 10SM CLR 21/20 A2985 RMK AO2